Biggs Army Air Field (Fort Bliss) Fort Bliss,El Paso US
ICAO: KBIF
IATA: BIF
Category: Medium
Scheduled Services: No

Elevation: 3946 ft
TransAlt. 18000 ft.

Airport Communications:
EL PASO APP:119.15
EL PASO CLNC DEL:125
EL PASO DEP:121.3
GND:121.6
ANG OPS:49.95
PTD:122.7
TWR:127.9

KBIF Zoom In..

If you have problems with the map follow the link
https://www.worldairports.se/pages/airport.php?
ICAO=KBIF

Runways:

(A) RW 03 length 13554 ft width 150 ft
---- / hdg 32

(B) RW 21 length 13554 ft width 150 ft
---- / hdg 212

Location; KBIF
Day. 23 / Time. 22.58 Zulu
* Altimeter: 30.06
* Temperature: 15° c. 59°f.
* Wind from: 120° Speed 05 kn.
Dewpoint: -03° c.
Visibility: 9 Statute Miles.
Clouds: Clear (automated report).

KBIF 232258Z AUTO 12005KT 9SM CLR 15/M03 A3006 RMK AO2 SLP153 T01501026 $


Wind From 120°
Speed 05 kn.

 
 
jpsmedia worldairports.se 2020   terms of use